createdAt,value
2019-02-26T00:01:21.080Z,8.10
2019-02-26T00:03:50.881Z,8.00
2019-02-26T00:06:20.670Z,7.90
2019-02-26T00:08:53.266Z,8.00
2019-02-26T00:11:24.373Z,8.00
2019-02-26T00:13:52.420Z,7.90
2019-02-26T00:16:22.156Z,7.80
2019-02-26T00:18:51.070Z,7.80
2019-02-26T00:21:22.006Z,7.70
2019-02-26T00:23:51.475Z,7.60
2019-02-26T00:26:22.438Z,7.60
2019-02-26T00:28:51.553Z,7.50
2019-02-26T00:31:21.422Z,7.50
2019-02-26T00:33:51.380Z,7.40
2019-02-26T00:36:20.356Z,7.40
2019-02-26T00:38:49.156Z,7.40
2019-02-26T00:41:20.307Z,7.40
2019-02-26T00:43:51.232Z,7.40
2019-02-26T00:46:19.397Z,7.30
2019-02-26T00:48:48.249Z,7.30
2019-02-26T00:51:18.831Z,7.30
2019-02-26T00:53:50.822Z,7.20
2019-02-26T00:56:18.246Z,7.10
2019-02-26T00:58:48.363Z,7.10
2019-02-26T01:01:19.917Z,6.90
2019-02-26T01:03:49.906Z,6.90
2019-02-26T01:06:19.588Z,6.70
2019-02-26T01:08:48.361Z,6.60
2019-02-26T01:11:19.332Z,6.50
2019-02-26T01:13:48.734Z,6.40
2019-02-26T01:16:18.286Z,6.40
2019-02-26T01:18:48.872Z,6.40
2019-02-26T01:21:17.660Z,6.40
2019-02-26T01:23:46.485Z,6.40
2019-02-26T01:26:15.303Z,6.30
2019-02-26T01:28:48.000Z,6.30
2019-02-26T01:31:14.988Z,6.30
2019-02-26T01:33:43.871Z,6.30
2019-02-26T01:36:14.008Z,6.10
2019-02-26T01:38:45.871Z,6.00
2019-02-26T01:41:15.573Z,5.90
2019-02-26T01:43:44.835Z,5.90
2019-02-26T01:46:14.514Z,5.80
2019-02-26T01:48:44.465Z,5.80
2019-02-26T01:51:13.344Z,5.80
2019-02-26T01:53:44.390Z,5.70
2019-02-26T01:56:13.092Z,5.60
2019-02-26T01:58:42.064Z,5.60
2019-02-26T02:01:14.033Z,5.60
2019-02-26T02:03:41.634Z,5.50
2019-02-26T02:06:11.803Z,5.50
2019-02-26T02:08:43.351Z,5.40
2019-02-26T02:11:11.844Z,5.40
2019-02-26T02:13:41.378Z,5.40
2019-02-26T02:16:11.209Z,5.30
2019-02-26T02:18:43.750Z,5.30
2019-02-26T02:21:10.725Z,5.30
2019-02-26T02:23:39.536Z,5.20
2019-02-26T02:26:11.071Z,5.10
2019-02-26T02:28:39.788Z,5.10
2019-02-26T02:31:08.797Z,5.10
2019-02-26T02:33:38.098Z,5.00
2019-02-26T02:36:07.214Z,5.00
2019-02-26T02:38:37.155Z,5.00
2019-02-26T02:41:06.769Z,5.10
2019-02-26T02:43:35.735Z,5.10
2019-02-26T02:46:04.896Z,5.00
2019-02-26T02:48:33.821Z,5.10
2019-02-26T02:51:05.338Z,5.10
2019-02-26T02:53:33.496Z,5.00
2019-02-26T02:56:03.855Z,5.00
2019-02-26T02:58:33.089Z,5.00
2019-02-26T03:01:01.933Z,5.00
2019-02-26T03:03:31.014Z,5.00
2019-02-26T03:06:02.011Z,5.00
2019-02-26T03:08:30.583Z,4.90
2019-02-26T03:10:59.592Z,4.90
2019-02-26T03:13:28.488Z,4.90
2019-02-26T03:15:59.268Z,4.90
2019-02-26T03:18:28.344Z,4.80
2019-02-26T03:20:59.339Z,4.70
2019-02-26T03:23:27.812Z,4.70
2019-02-26T03:25:56.749Z,4.60
2019-02-26T03:28:25.918Z,4.50
2019-02-26T03:30:54.869Z,4.50
2019-02-26T03:33:23.882Z,4.40
2019-02-26T03:35:52.769Z,4.40
2019-02-26T03:38:23.491Z,4.40
2019-02-26T03:40:54.702Z,4.30
2019-02-26T03:43:23.212Z,4.30
2019-02-26T03:45:52.116Z,4.30
2019-02-26T03:48:21.052Z,4.40
2019-02-26T03:50:49.979Z,4.50
2019-02-26T03:53:19.088Z,4.50
2019-02-26T03:55:48.484Z,4.60
2019-02-26T03:58:17.377Z,4.60
2019-02-26T04:00:46.987Z,4.60
2019-02-26T04:03:17.516Z,4.60
2019-02-26T04:05:46.705Z,4.60
2019-02-26T04:08:16.656Z,4.50
2019-02-26T04:10:47.950Z,4.50
2019-02-26T04:13:16.911Z,4.40
2019-02-26T04:15:46.236Z,4.30
2019-02-26T04:18:15.569Z,4.30
2019-02-26T04:20:44.509Z,4.30
2019-02-26T04:23:16.538Z,4.30
2019-02-26T04:25:56.975Z,4.30
2019-02-26T04:28:37.066Z,4.30
2019-02-26T04:31:52.181Z,4.30
2019-02-26T04:35:00.483Z,4.40
2019-02-26T04:38:26.864Z,4.30
2019-02-26T04:41:47.372Z,4.40
2019-02-26T04:45:05.952Z,4.40
2019-02-26T04:47:34.229Z,4.30
2019-02-26T04:50:06.271Z,4.20
2019-02-26T04:52:35.765Z,4.10
2019-02-26T04:55:05.087Z,4.10
2019-02-26T04:57:34.364Z,4.00
2019-02-26T05:00:05.178Z,3.90
2019-02-26T05:02:34.221Z,3.80
2019-02-26T05:05:03.166Z,3.70
2019-02-26T05:07:32.904Z,3.70
2019-02-26T05:10:02.578Z,3.60
2019-02-26T05:12:34.152Z,3.60
2019-02-26T05:15:02.188Z,3.60
2019-02-26T05:17:33.254Z,3.60
2019-02-26T05:20:03.553Z,3.50
2019-02-26T05:22:33.421Z,3.50
2019-02-26T05:25:04.667Z,3.50
2019-02-26T05:27:33.253Z,3.50
2019-02-26T05:30:02.164Z,3.50
2019-02-26T05:32:33.389Z,3.40
2019-02-26T05:35:01.573Z,3.40
2019-02-26T05:37:32.590Z,3.50
2019-02-26T05:40:01.036Z,3.40
2019-02-26T05:42:29.849Z,3.40
2019-02-26T05:45:00.734Z,3.40
2019-02-26T05:47:29.314Z,3.40
2019-02-26T05:49:59.526Z,3.40
2019-02-26T05:52:30.852Z,3.50
2019-02-26T05:54:59.436Z,3.50
2019-02-26T05:57:32.557Z,3.50
2019-02-26T05:59:59.057Z,3.50
2019-02-26T06:02:27.967Z,3.50
2019-02-26T06:04:56.878Z,3.50
2019-02-26T06:07:29.789Z,3.50
2019-02-26T06:09:59.100Z,3.40
2019-02-26T06:12:27.080Z,3.30
2019-02-26T06:15:00.319Z,3.30
2019-02-26T06:17:26.584Z,3.30
2019-02-26T06:20:01.428Z,3.30
2019-02-26T06:22:29.644Z,3.40
2019-02-26T06:25:00.278Z,3.40
2019-02-26T06:27:29.496Z,3.30
2019-02-26T06:30:00.816Z,3.40
2019-02-26T06:32:32.225Z,3.40
2019-02-26T06:34:59.446Z,3.50
2019-02-26T06:37:29.185Z,3.40
2019-02-26T06:40:00.501Z,3.40
2019-02-26T06:42:31.591Z,3.40
2019-02-26T06:45:00.343Z,3.40
2019-02-26T06:47:31.033Z,3.40
2019-02-26T06:50:00.249Z,3.30
2019-02-26T06:52:29.886Z,3.30
2019-02-26T06:55:00.944Z,3.30
2019-02-26T06:57:30.629Z,3.30
2019-02-26T07:00:01.145Z,3.30
2019-02-26T07:02:30.060Z,3.30
2019-02-26T07:04:58.991Z,3.40
2019-02-26T07:07:27.816Z,3.40
2019-02-26T07:09:58.126Z,3.40
2019-02-26T07:12:27.280Z,3.50
2019-02-26T07:14:57.985Z,3.50
2019-02-26T07:17:26.866Z,3.60
2019-02-26T07:19:57.702Z,3.60
2019-02-26T07:22:27.966Z,3.60
2019-02-26T07:24:56.965Z,3.60
2019-02-26T07:27:26.405Z,3.70
2019-02-26T07:29:56.500Z,3.80
2019-02-26T07:32:25.427Z,3.90
2019-02-26T07:34:54.224Z,3.90
2019-02-26T07:37:23.049Z,4.00
2019-02-26T07:39:51.888Z,4.00
2019-02-26T07:42:20.761Z,4.10
2019-02-26T07:44:49.688Z,4.20
2019-02-26T07:47:18.848Z,4.30
2019-02-26T07:49:47.844Z,4.40
2019-02-26T07:52:16.651Z,4.50
2019-02-26T07:54:47.074Z,4.60
2019-02-26T07:57:17.970Z,4.70
2019-02-26T07:59:47.595Z,4.70
2019-02-26T08:02:17.749Z,4.80
2019-02-26T08:04:46.598Z,4.90
2019-02-26T08:07:15.660Z,5.00
2019-02-26T08:09:44.676Z,5.10
2019-02-26T08:12:13.831Z,5.30
2019-02-26T08:14:43.383Z,5.40
2019-02-26T08:17:13.531Z,5.60
2019-02-26T08:19:46.615Z,5.70
2019-02-26T08:22:13.360Z,5.90
2019-02-26T08:24:42.288Z,6.00
2019-02-26T08:27:13.415Z,6.10
2019-02-26T08:29:42.258Z,6.30
2019-02-26T08:32:13.786Z,6.40
2019-02-26T08:34:41.706Z,6.60
2019-02-26T08:37:10.485Z,6.80
2019-02-26T08:39:39.376Z,7.00
2019-02-26T08:42:09.948Z,7.10
2019-02-26T08:44:38.897Z,7.20
2019-02-26T08:47:11.146Z,7.50
2019-02-26T08:49:40.724Z,7.60
2019-02-26T08:52:09.185Z,7.70
2019-02-26T08:54:38.099Z,7.90
2019-02-26T08:57:07.092Z,8.10
2019-02-26T08:59:35.937Z,8.30
2019-02-26T09:02:05.180Z,8.50
2019-02-26T09:04:35.141Z,8.60
2019-02-26T09:07:05.124Z,8.80
2019-02-26T09:09:34.023Z,9.00
2019-02-26T09:12:03.332Z,9.20
2019-02-26T09:14:37.147Z,9.40
2019-02-26T09:17:04.501Z,9.50
2019-02-26T09:19:35.434Z,9.70
2019-02-26T09:22:04.224Z,9.80
2019-02-26T09:24:33.104Z,10.00
2019-02-26T09:27:04.823Z,10.10
2019-02-26T09:29:34.332Z,10.40
2019-02-26T09:32:06.607Z,10.50
2019-02-26T09:34:34.899Z,10.70
2019-02-26T09:37:05.782Z,10.90
2019-02-26T09:39:36.503Z,11.00
2019-02-26T09:42:07.312Z,11.20
2019-02-26T09:44:36.925Z,11.50
2019-02-26T09:47:07.565Z,11.60
2019-02-26T09:49:36.492Z,11.70
2019-02-26T09:52:06.535Z,11.90
2019-02-26T09:54:40.252Z,12.00
2019-02-26T09:57:06.364Z,12.10
2019-02-26T09:59:35.908Z,12.30
2019-02-26T10:02:06.125Z,12.50
2019-02-26T10:04:35.473Z,12.70
2019-02-26T10:07:06.742Z,12.80
2019-02-26T10:09:37.500Z,13.00
2019-02-26T10:12:07.519Z,13.20
2019-02-26T10:14:38.356Z,13.40
2019-02-26T10:17:09.073Z,13.50
2019-02-26T10:19:38.708Z,13.70
2019-02-26T10:22:12.607Z,13.80
2019-02-26T10:24:40.461Z,13.90
2019-02-26T10:27:11.553Z,14.10
2019-02-26T10:29:42.930Z,14.20
2019-02-26T10:32:11.802Z,14.30
2019-02-26T10:34:41.245Z,14.40
2019-02-26T10:37:10.664Z,14.60
2019-02-26T10:39:39.526Z,14.70
2019-02-26T10:42:08.529Z,14.80
2019-02-26T10:44:37.324Z,14.90
2019-02-26T10:47:08.287Z,15.10
2019-02-26T10:49:36.730Z,15.30
2019-02-26T10:52:05.780Z,15.50
2019-02-26T10:54:40.130Z,15.60
2019-02-26T10:57:07.450Z,15.70
2019-02-26T10:59:36.408Z,15.80
2019-02-26T11:02:05.759Z,16.00
2019-02-26T11:04:35.936Z,16.10
2019-02-26T11:07:08.689Z,16.30
2019-02-26T11:09:35.902Z,16.30
2019-02-26T11:12:07.944Z,16.40
2019-02-26T11:14:36.327Z,16.60
2019-02-26T11:17:06.272Z,16.70
2019-02-26T11:19:36.650Z,16.80
2019-02-26T11:22:05.867Z,16.90
2019-02-26T11:24:36.203Z,17.00
2019-02-26T11:27:05.316Z,17.10
2019-02-26T11:29:36.413Z,17.20
2019-02-26T11:32:07.584Z,17.20
2019-02-26T11:34:38.250Z,17.30
2019-02-26T11:37:08.775Z,17.40
2019-02-26T11:39:37.223Z,17.50
2019-02-26T11:42:06.081Z,17.60
2019-02-26T11:44:35.056Z,17.70
2019-02-26T11:47:08.526Z,17.80
2019-02-26T11:49:39.438Z,17.90
2019-02-26T11:52:08.524Z,18.00
2019-02-26T11:54:39.696Z,18.00
2019-02-26T11:57:11.044Z,18.10
2019-02-26T11:59:41.061Z,18.30
2019-02-26T12:02:09.890Z,18.50
2019-02-26T12:04:38.981Z,18.60
2019-02-26T12:07:09.795Z,18.70
2019-02-26T12:09:40.695Z,18.80
2019-02-26T12:12:11.630Z,18.80
2019-02-26T12:14:43.052Z,18.90
2019-02-26T12:17:10.820Z,19.00
2019-02-26T12:19:39.608Z,19.20
2019-02-26T12:22:08.577Z,19.40
2019-02-26T12:24:37.749Z,19.50
2019-02-26T12:27:07.382Z,19.60
2019-02-26T12:29:37.181Z,19.70
2019-02-26T12:32:06.048Z,19.80
2019-02-26T12:34:35.928Z,19.90
2019-02-26T12:37:08.731Z,20.00
2019-02-26T12:39:36.360Z,20.10
2019-02-26T12:42:07.129Z,20.20
2019-02-26T12:44:39.458Z,20.30
2019-02-26T12:47:06.818Z,20.40
2019-02-26T12:49:38.395Z,20.50
2019-02-26T12:52:06.601Z,20.60
2019-02-26T12:54:37.812Z,20.70
2019-02-26T12:57:05.995Z,20.80
2019-02-26T12:59:34.904Z,21.00
2019-02-26T13:02:05.582Z,21.10
2019-02-26T13:04:37.423Z,21.30
2019-02-26T13:07:08.628Z,21.40
2019-02-26T13:09:41.228Z,21.40
2019-02-26T13:12:06.836Z,21.50
2019-02-26T13:14:35.724Z,21.60
2019-02-26T13:17:04.740Z,21.80
2019-02-26T13:19:36.834Z,22.10
2019-02-26T13:22:06.703Z,22.30
2019-02-26T13:24:35.016Z,22.40
2019-02-26T13:27:04.151Z,22.70
2019-02-26T13:29:32.956Z,23.40
2019-02-26T13:32:01.916Z,24.30
2019-02-26T13:34:30.786Z,25.60
2019-02-26T13:36:59.648Z,26.90
2019-02-26T13:39:33.039Z,28.30
2019-02-26T13:42:05.669Z,29.40
2019-02-26T13:44:30.135Z,30.20
2019-02-26T13:46:59.029Z,31.30
2019-02-26T13:49:28.252Z,31.80
2019-02-26T13:51:57.177Z,32.40
2019-02-26T13:54:25.940Z,32.80
2019-02-26T13:56:54.840Z,33.00
2019-02-26T13:59:24.081Z,33.10
2019-02-26T14:01:52.882Z,32.70
2019-02-26T14:04:22.532Z,32.50
2019-02-26T14:06:51.440Z,32.40
2019-02-26T14:09:20.200Z,32.20
2019-02-26T14:11:49.045Z,32.30
2019-02-26T14:14:17.924Z,32.00
2019-02-26T14:16:46.771Z,31.40
2019-02-26T14:19:15.564Z,31.40
2019-02-26T14:21:44.540Z,30.80
2019-02-26T14:24:13.364Z,30.30
2019-02-26T14:26:42.165Z,29.30
2019-02-26T14:29:11.036Z,28.70
2019-02-26T14:31:40.133Z,28.50
2019-02-26T14:34:08.936Z,28.30
2019-02-26T14:36:37.769Z,28.00
2019-02-26T14:39:07.921Z,27.70
2019-02-26T14:41:36.908Z,27.10
2019-02-26T14:44:05.806Z,27.00
2019-02-26T14:46:34.660Z,26.80
2019-02-26T14:49:03.881Z,26.80
2019-02-26T14:51:33.056Z,26.80
2019-02-26T14:54:01.949Z,26.70
2019-02-26T14:56:30.908Z,26.70
2019-02-26T14:58:59.852Z,26.60
2019-02-26T15:01:28.748Z,26.20
2019-02-26T15:03:57.936Z,25.90
2019-02-26T15:06:26.897Z,25.80
2019-02-26T15:08:55.776Z,25.50
2019-02-26T15:11:24.569Z,25.20
2019-02-26T15:13:53.444Z,25.30
2019-02-26T15:16:22.480Z,25.30
2019-02-26T15:18:51.451Z,24.90
2019-02-26T15:21:20.301Z,24.80
2019-02-26T15:23:50.391Z,24.70
2019-02-26T15:26:19.596Z,24.50
2019-02-26T15:28:49.050Z,24.20
2019-02-26T15:31:18.489Z,24.10
2019-02-26T15:33:47.369Z,24.00
2019-02-26T15:36:16.236Z,24.00
2019-02-26T15:38:45.289Z,24.00
2019-02-26T15:41:14.192Z,24.00
2019-02-26T15:43:43.160Z,23.90
2019-02-26T15:46:12.041Z,23.80
2019-02-26T15:48:40.827Z,23.60
2019-02-26T15:51:14.310Z,23.60
2019-02-26T15:53:40.825Z,23.40
2019-02-26T15:56:10.359Z,23.30
2019-02-26T15:58:39.273Z,23.20
2019-02-26T16:01:12.875Z,23.00
2019-02-26T16:03:41.751Z,22.80
2019-02-26T16:06:10.608Z,22.70
2019-02-26T16:08:41.323Z,22.70
2019-02-26T16:11:10.060Z,22.60
2019-02-26T16:13:39.232Z,22.50
2019-02-26T16:16:08.225Z,22.40
2019-02-26T16:18:37.184Z,22.20
2019-02-26T16:21:06.044Z,22.20
2019-02-26T16:23:34.925Z,22.10
2019-02-26T16:26:05.692Z,22.10
2019-02-26T16:28:34.440Z,22.10
2019-02-26T16:31:04.615Z,22.10
2019-02-26T16:33:33.737Z,22.10
2019-02-26T16:36:02.560Z,22.10
2019-02-26T16:38:32.172Z,22.00
2019-02-26T16:41:02.801Z,21.80
2019-02-26T16:43:31.738Z,21.50
2019-02-26T16:46:00.644Z,21.30
2019-02-26T16:48:29.516Z,21.00
2019-02-26T16:50:58.809Z,20.80
2019-02-26T16:53:27.789Z,20.60
2019-02-26T16:55:56.673Z,20.40
2019-02-26T16:58:25.467Z,20.20
2019-02-26T17:00:54.361Z,20.00
2019-02-26T17:03:23.887Z,19.90
2019-02-26T17:05:52.768Z,19.80
2019-02-26T17:08:21.571Z,19.60
2019-02-26T17:10:50.918Z,19.40
2019-02-26T17:13:19.877Z,19.30
2019-02-26T17:15:49.113Z,19.10
2019-02-26T17:18:18.088Z,19.00
2019-02-26T17:20:47.314Z,19.00
2019-02-26T17:23:16.201Z,18.90
2019-02-26T17:25:45.074Z,18.80
2019-02-26T17:28:13.980Z,18.70
2019-02-26T17:30:42.857Z,18.60
2019-02-26T17:33:14.391Z,18.50
2019-02-26T17:35:42.168Z,18.30
2019-02-26T17:38:12.823Z,18.20
2019-02-26T17:40:42.543Z,18.10
2019-02-26T17:43:11.549Z,18.00
2019-02-26T17:45:40.500Z,17.90
2019-02-26T17:48:09.368Z,17.80
2019-02-26T17:50:38.392Z,17.80
2019-02-26T17:53:07.636Z,17.70
2019-02-26T17:55:36.577Z,17.60
2019-02-26T17:58:09.814Z,17.50
2019-02-26T18:00:38.721Z,17.40
2019-02-26T18:03:07.731Z,17.10
2019-02-26T18:05:40.459Z,17.00
2019-02-26T18:08:07.380Z,16.80
2019-02-26T18:10:36.748Z,16.50
2019-02-26T18:13:05.995Z,16.30
2019-02-26T18:15:35.287Z,16.00
2019-02-26T18:18:04.252Z,15.70
2019-02-26T18:20:33.360Z,15.40
2019-02-26T18:23:02.248Z,15.20
2019-02-26T18:25:31.264Z,15.00
2019-02-26T18:28:00.152Z,14.80
2019-02-26T18:30:29.143Z,14.70
2019-02-26T18:32:58.993Z,14.60
2019-02-26T18:35:28.400Z,14.50
2019-02-26T18:37:57.787Z,14.40
2019-02-26T18:40:28.389Z,14.40
2019-02-26T18:42:57.317Z,14.40
2019-02-26T18:45:27.877Z,14.30
2019-02-26T18:47:57.961Z,14.30
2019-02-26T18:50:28.643Z,14.30
2019-02-26T18:52:58.452Z,14.30
2019-02-26T18:55:30.227Z,14.30
2019-02-26T18:57:58.609Z,14.20
2019-02-26T19:00:27.612Z,14.20
2019-02-26T19:02:57.003Z,14.00
2019-02-26T19:05:25.887Z,13.90
2019-02-26T19:07:55.320Z,13.80
2019-02-26T19:10:24.320Z,13.80
2019-02-26T19:12:53.287Z,13.70
2019-02-26T19:15:22.162Z,13.60
2019-02-26T19:17:52.288Z,13.50
2019-02-26T19:20:23.676Z,13.30
2019-02-26T19:22:52.600Z,13.20
2019-02-26T19:25:21.816Z,13.10
2019-02-26T19:27:52.973Z,13.10
2019-02-26T19:30:21.781Z,12.90
2019-02-26T19:32:50.785Z,12.80
2019-02-26T19:35:20.060Z,12.70
2019-02-26T19:37:52.763Z,12.70
2019-02-26T19:40:23.460Z,12.50
2019-02-26T19:42:52.902Z,12.30
2019-02-26T19:45:22.434Z,12.30
2019-02-26T19:47:51.348Z,12.20
2019-02-26T19:50:20.580Z,12.10
2019-02-26T19:52:56.662Z,12.00
2019-02-26T19:55:23.278Z,12.00
2019-02-26T19:57:52.128Z,11.90
2019-02-26T20:00:21.060Z,11.80
2019-02-26T20:02:49.920Z,11.70
2019-02-26T20:05:18.937Z,11.70
2019-02-26T20:07:47.783Z,11.60
2019-02-26T20:10:17.013Z,11.50
2019-02-26T20:12:45.909Z,11.40
2019-02-26T20:15:15.101Z,11.30
2019-02-26T20:17:44.085Z,11.30
2019-02-26T20:20:13.968Z,11.10
2019-02-26T20:22:43.109Z,11.10
2019-02-26T20:25:13.788Z,11.10
2019-02-26T20:27:42.677Z,11.10
2019-02-26T20:30:14.452Z,11.10
2019-02-26T20:32:43.592Z,11.00
2019-02-26T20:35:12.740Z,11.10
2019-02-26T20:37:41.688Z,11.10
2019-02-26T20:40:15.974Z,11.10
2019-02-26T20:42:43.352Z,11.20
2019-02-26T20:45:17.810Z,11.20
2019-02-26T20:47:46.275Z,11.30
2019-02-26T20:50:20.122Z,11.30
2019-02-26T20:52:47.089Z,11.30
2019-02-26T20:55:19.188Z,11.40
2019-02-26T20:57:48.921Z,11.30
2019-02-26T21:00:18.716Z,11.30
2019-02-26T21:02:47.699Z,11.20
2019-02-26T21:05:17.064Z,11.10
2019-02-26T21:07:46.615Z,11.10
2019-02-26T21:10:16.059Z,11.10
2019-02-26T21:12:45.104Z,11.00
2019-02-26T21:15:15.564Z,11.00
2019-02-26T21:17:44.552Z,10.90
2019-02-26T21:20:14.144Z,10.90
2019-02-26T21:22:43.184Z,10.90
2019-02-26T21:25:12.440Z,10.80
2019-02-26T21:27:41.428Z,10.80
2019-02-26T21:30:12.653Z,10.80
2019-02-26T21:32:41.586Z,10.70
2019-02-26T21:35:10.911Z,10.60
2019-02-26T21:37:39.735Z,10.60
2019-02-26T21:40:08.969Z,10.60
2019-02-26T21:42:37.740Z,10.50
2019-02-26T21:45:07.032Z,10.40
2019-02-26T21:47:36.288Z,10.40
2019-02-26T21:50:05.780Z,10.30
2019-02-26T21:52:34.580Z,10.10
2019-02-26T21:55:03.781Z,10.10
2019-02-26T21:57:32.792Z,10.10
2019-02-26T22:00:05.137Z,10.00
2019-02-26T22:02:32.325Z,10.00
2019-02-26T22:05:04.993Z,10.00
2019-02-26T22:07:31.686Z,9.90
2019-02-26T22:10:00.849Z,9.80
2019-02-26T22:12:29.901Z,9.70
2019-02-26T22:14:58.796Z,9.80
2019-02-26T22:17:27.600Z,9.70
2019-02-26T22:19:56.568Z,9.70
2019-02-26T22:22:26.276Z,9.60
2019-02-26T22:24:55.512Z,9.60
2019-02-26T22:27:24.318Z,9.60
2019-02-26T22:29:53.115Z,9.40
2019-02-26T22:32:22.169Z,9.30
2019-02-26T22:37:13.373Z,9.20
2019-02-26T22:39:42.332Z,8.90
2019-02-26T22:42:11.124Z,8.80
2019-02-26T22:44:40.072Z,8.70
2019-02-26T22:47:08.976Z,8.70
2019-02-26T22:49:37.877Z,8.60
2019-02-26T22:52:06.856Z,8.60
2019-02-26T22:54:35.838Z,8.60
2019-02-26T22:57:05.673Z,8.50
2019-02-26T22:59:34.565Z,8.50
2019-02-26T23:02:03.898Z,8.40
2019-02-26T23:04:32.897Z,8.40
2019-02-26T23:07:04.431Z,8.40
2019-02-26T23:09:32.796Z,8.30
2019-02-26T23:12:04.861Z,8.40
2019-02-26T23:14:33.169Z,8.40
2019-02-26T23:17:02.132Z,8.30
2019-02-26T23:19:31.048Z,8.30
2019-02-26T23:22:00.000Z,8.30
2019-02-26T23:24:29.760Z,8.30
2019-02-26T23:26:58.752Z,8.30
2019-02-26T23:29:27.976Z,8.20
2019-02-26T23:31:58.282Z,8.10
2019-02-26T23:34:27.276Z,7.90
2019-02-26T23:36:58.673Z,7.80
2019-02-26T23:39:26.988Z,7.90
2019-02-26T23:41:55.760Z,8.00
2019-02-26T23:44:25.105Z,8.10
2019-02-26T23:46:54.020Z,8.00
2019-02-26T23:49:23.076Z,7.90
2019-02-26T23:51:53.818Z,7.80
2019-02-26T23:54:22.808Z,7.70
2019-02-26T23:56:52.214Z,7.60
2019-02-26T23:59:21.620Z,7.50
